createdAt,value
2023-09-04T00:00:01.026Z,98395.41
2023-09-04T00:02:47.756Z,98397.84
2023-09-04T00:05:36.570Z,98407.47
2023-09-04T00:08:22.671Z,98400.09
2023-09-04T00:11:08.548Z,98401.91
2023-09-04T00:13:54.331Z,98401.72
2023-09-04T00:16:40.467Z,98396.41
2023-09-04T00:19:26.274Z,98400.09
2023-09-04T00:22:11.476Z,98402.13
2023-09-04T00:24:56.897Z,98418.09
2023-09-04T00:27:42.268Z,98422.84
2023-09-04T00:30:27.721Z,98427.31
2023-09-04T00:33:13.067Z,98429.19
2023-09-04T00:35:58.565Z,98424.66
2023-09-04T00:38:44.009Z,98420.00
2023-09-04T00:41:29.369Z,98423.31
2023-09-04T00:44:14.898Z,98432.50
2023-09-04T00:47:00.697Z,98431.28
2023-09-04T00:49:47.998Z,98428.88
2023-09-04T00:52:34.117Z,98416.81
2023-09-04T00:55:19.990Z,98426.03
2023-09-04T00:58:05.740Z,98430.75
2023-09-04T01:00:51.406Z,98435.91
2023-09-04T01:03:37.110Z,98433.47
2023-09-04T01:06:22.547Z,98449.06
2023-09-04T01:09:10.229Z,98441.94
2023-09-04T01:12:11.532Z,98443.81
2023-09-04T01:15:00.042Z,98436.84
2023-09-04T01:17:46.621Z,98437.47
2023-09-04T01:20:33.256Z,98427.91
2023-09-04T01:23:18.920Z,98436.09
2023-09-04T01:26:13.332Z,98432.25
2023-09-04T01:29:43.988Z,98439.81
2023-09-04T01:32:37.507Z,98436.09
2023-09-04T01:35:24.411Z,98427.75
2023-09-04T01:38:10.952Z,98435.72
2023-09-04T01:40:56.993Z,98425.13
2023-09-04T01:43:42.452Z,98435.13
2023-09-04T01:46:27.955Z,98441.47
2023-09-04T01:49:13.353Z,98446.19
2023-09-04T01:52:01.332Z,98458.63
2023-09-04T01:54:46.950Z,98463.94
2023-09-04T01:57:32.269Z,98453.31
2023-09-04T02:00:18.022Z,98451.50
2023-09-04T02:03:03.949Z,98444.34
2023-09-04T02:05:49.457Z,98443.34
2023-09-04T02:08:35.409Z,98451.53
2023-09-04T02:11:20.729Z,98456.22
2023-09-04T02:14:07.821Z,98450.09
2023-09-04T02:16:53.255Z,98450.09
2023-09-04T02:19:38.642Z,98446.63
2023-09-04T02:22:24.200Z,98446.44
2023-09-04T02:25:09.480Z,98446.44
2023-09-04T02:27:55.125Z,98444.19
2023-09-04T02:30:40.766Z,98446.84
2023-09-04T02:33:26.123Z,98442.16
2023-09-04T02:36:12.779Z,98450.91
2023-09-04T02:38:58.278Z,98458.69
2023-09-04T02:41:43.630Z,98451.16
2023-09-04T02:44:30.504Z,98434.97
2023-09-04T02:47:16.185Z,98436.19
2023-09-04T02:50:01.629Z,98437.00
2023-09-04T02:52:46.881Z,98434.97
2023-09-04T02:55:33.302Z,98441.09
2023-09-04T02:58:18.704Z,98440.47
2023-09-04T03:01:04.173Z,98438.25
2023-09-04T03:03:50.601Z,98437.81
2023-09-04T03:06:35.941Z,98431.91
2023-09-04T03:09:21.340Z,98412.53
2023-09-04T03:12:07.589Z,98418.84
2023-09-04T03:15:05.680Z,98419.44
2023-09-04T03:17:51.217Z,98427.00
2023-09-04T03:20:36.536Z,98416.19
2023-09-04T03:23:22.476Z,98417.41
2023-09-04T03:26:08.207Z,98414.94
2023-09-04T03:28:53.794Z,98420.25
2023-09-04T03:31:39.820Z,98420.25
2023-09-04T03:34:25.734Z,98423.28
2023-09-04T03:37:11.445Z,98413.91
2023-09-04T03:40:23.541Z,98433.31
2023-09-04T03:43:09.151Z,98444.72
2023-09-04T03:45:54.437Z,98438.41
2023-09-04T03:48:39.836Z,98447.38
2023-09-04T03:51:25.365Z,98444.91
2023-09-04T03:54:11.027Z,98439.19
2023-09-04T03:56:56.679Z,98433.69
2023-09-04T03:59:42.006Z,98441.81
2023-09-04T04:02:27.814Z,98432.03
2023-09-04T04:05:15.210Z,98435.50
2023-09-04T04:08:00.869Z,98432.03
2023-09-04T04:10:46.460Z,98430.59
2023-09-04T04:13:32.217Z,98424.03
2023-09-04T04:16:17.868Z,98425.88
2023-09-04T04:19:03.609Z,98437.84
2023-09-04T04:21:48.958Z,98436.84
2023-09-04T04:24:36.541Z,98431.97
2023-09-04T04:27:21.991Z,98437.22
2023-09-04T04:30:08.065Z,98438.00
2023-09-04T04:32:53.973Z,98443.69
2023-09-04T04:35:40.535Z,98442.69
2023-09-04T04:38:26.340Z,98444.09
2023-09-04T04:41:12.303Z,98432.06
2023-09-04T04:43:58.089Z,98429.41
2023-09-04T04:46:43.676Z,98431.06
2023-09-04T04:49:29.035Z,98445.72
2023-09-04T04:52:14.396Z,98456.13
2023-09-04T04:54:59.863Z,98450.44
2023-09-04T04:57:45.234Z,98447.59
2023-09-04T05:00:30.709Z,98447.38
2023-09-04T05:03:16.299Z,98455.97
2023-09-04T05:06:03.300Z,98455.56
2023-09-04T05:08:49.255Z,98454.16
2023-09-04T05:11:36.770Z,98461.50
2023-09-04T05:14:23.974Z,98471.50
2023-09-04T05:17:09.414Z,98472.38
2023-09-04T05:19:55.822Z,98480.34
2023-09-04T05:22:41.160Z,98489.97
2023-09-04T05:25:26.691Z,98476.72
2023-09-04T05:28:13.334Z,98475.72
2023-09-04T05:31:05.059Z,98478.81
2023-09-04T05:33:50.982Z,98485.56
2023-09-04T05:36:36.700Z,98485.19
2023-09-04T05:39:22.207Z,98488.44
2023-09-04T05:42:07.704Z,98495.22
2023-09-04T05:44:53.105Z,98505.63
2023-09-04T05:47:38.514Z,98499.72
2023-09-04T05:50:23.950Z,98500.78
2023-09-04T05:53:09.557Z,98500.94
2023-09-04T05:56:10.922Z,98495.84
2023-09-04T05:58:57.814Z,98510.13
2023-09-04T06:01:43.645Z,98515.81
2023-09-04T06:04:29.268Z,98519.50
2023-09-04T06:07:16.131Z,98521.91
2023-09-04T06:10:01.699Z,98521.88
2023-09-04T06:12:47.054Z,98516.69
2023-09-04T06:15:32.493Z,98508.50
2023-09-04T06:18:18.489Z,98504.97
2023-09-04T06:21:04.230Z,98500.44
2023-09-04T06:23:49.620Z,98500.03
2023-09-04T06:26:34.972Z,98500.38
2023-09-04T06:29:20.592Z,98503.81
2023-09-04T06:32:06.612Z,98499.66
2023-09-04T06:34:52.173Z,98512.25
2023-09-04T06:37:37.573Z,98503.59
2023-09-04T06:40:24.026Z,98496.75
2023-09-04T06:43:10.243Z,98506.47
2023-09-04T06:45:55.899Z,98505.56
2023-09-04T06:48:41.215Z,98511.56
2023-09-04T06:51:26.864Z,98505.88
2023-09-04T06:54:12.560Z,98504.72
2023-09-04T06:56:57.835Z,98502.31
2023-09-04T06:59:43.365Z,98503.94
2023-09-04T07:02:28.763Z,98507.47
2023-09-04T07:05:14.185Z,98496.03
2023-09-04T07:07:59.785Z,98500.59
2023-09-04T07:10:45.208Z,98495.53
2023-09-04T07:13:30.655Z,98494.75
2023-09-04T07:16:34.637Z,98502.56
2023-09-04T07:19:22.554Z,98505.28
2023-09-04T07:22:07.965Z,98511.25
2023-09-04T07:24:53.983Z,98500.34
2023-09-04T07:27:39.570Z,98504.88
2023-09-04T07:30:24.938Z,98503.63
2023-09-04T07:33:10.462Z,98507.94
2023-09-04T07:35:56.126Z,98503.94
2023-09-04T07:38:42.309Z,98510.31
2023-09-04T07:41:27.966Z,98506.25
2023-09-04T07:44:13.551Z,98509.13
2023-09-04T07:46:59.125Z,98510.97
2023-09-04T07:49:45.011Z,98506.66
2023-09-04T07:52:30.321Z,98509.03
2023-09-04T07:55:16.241Z,98507.38
2023-09-04T07:58:01.810Z,98505.94
2023-09-04T08:00:52.271Z,98503.78
2023-09-04T08:03:37.708Z,98503.47
2023-09-04T08:06:23.275Z,98503.41
2023-09-04T08:09:08.514Z,98504.69
2023-09-04T08:11:54.130Z,98502.75
2023-09-04T08:14:39.607Z,98505.94
2023-09-04T08:17:27.309Z,98500.50
2023-09-04T08:20:13.695Z,98502.00
2023-09-04T08:22:59.126Z,98505.16
2023-09-04T08:25:44.533Z,98498.84
2023-09-04T08:28:30.249Z,98497.44
2023-09-04T08:31:15.878Z,98494.84
2023-09-04T08:34:03.439Z,98491.16
2023-09-04T08:36:49.193Z,98490.94
2023-09-04T08:39:34.820Z,98492.44
2023-09-04T08:42:20.665Z,98491.72
2023-09-04T08:45:10.044Z,98488.81
2023-09-04T08:47:56.550Z,98481.69
2023-09-04T08:50:43.339Z,98485.78
2023-09-04T08:53:29.051Z,98477.53
2023-09-04T08:56:16.369Z,98477.59
2023-09-04T08:59:01.688Z,98475.78
2023-09-04T09:01:47.691Z,98464.00
2023-09-04T09:04:34.416Z,98475.03
2023-09-04T09:07:24.574Z,98475.34
2023-09-04T09:10:15.320Z,98472.69
2023-09-04T09:13:00.937Z,98476.53
2023-09-04T09:15:46.323Z,98461.00
2023-09-04T09:18:44.078Z,98468.59
2023-09-04T09:21:36.159Z,98469.16
2023-09-04T09:24:21.780Z,98474.06
2023-09-04T09:27:07.213Z,98473.56
2023-09-04T09:29:53.360Z,98472.00
2023-09-04T09:32:38.945Z,98467.47
2023-09-04T09:35:24.400Z,98455.91
2023-09-04T09:38:10.093Z,98458.63
2023-09-04T09:40:56.601Z,98443.28
2023-09-04T09:43:42.798Z,98440.06
2023-09-04T09:46:29.811Z,98438.22
2023-09-04T09:49:15.189Z,98439.03
2023-09-04T09:52:00.565Z,98430.72
2023-09-04T09:54:48.337Z,98437.19
2023-09-04T09:57:36.314Z,98432.88
2023-09-04T10:00:21.936Z,98431.31
2023-09-04T10:03:08.061Z,98425.94
2023-09-04T10:05:56.075Z,98423.28
2023-09-04T10:08:44.892Z,98424.06
2023-09-04T10:11:33.929Z,98432.97
2023-09-04T10:14:29.373Z,98423.78
2023-09-04T10:17:37.802Z,98431.88
2023-09-04T10:20:23.838Z,98419.75
2023-09-04T10:23:14.628Z,98434.03
2023-09-04T10:26:12.904Z,98417.88
2023-09-04T10:29:09.899Z,98425.44
2023-09-04T10:31:56.910Z,98420.59
2023-09-04T10:34:42.684Z,98419.78
2023-09-04T10:37:32.193Z,98422.75
2023-09-04T10:40:18.922Z,98413.56
2023-09-04T10:43:05.033Z,98415.19
2023-09-04T10:46:14.926Z,98417.06
2023-09-04T10:49:00.646Z,98417.31
2023-09-04T10:51:48.822Z,98417.88
2023-09-04T10:54:34.672Z,98412.19
2023-09-04T10:57:23.299Z,98413.25
2023-09-04T11:00:09.612Z,98406.53
2023-09-04T11:02:55.418Z,98414.06
2023-09-04T11:06:06.397Z,98412.97
2023-09-04T11:08:52.722Z,98414.03
2023-09-04T11:11:39.764Z,98403.50
2023-09-04T11:14:33.955Z,98412.69
2023-09-04T11:17:31.252Z,98404.56
2023-09-04T11:20:18.459Z,98406.16
2023-09-04T11:23:05.108Z,98398.59
2023-09-04T11:25:53.999Z,98396.94
2023-09-04T11:28:40.625Z,98395.56
2023-09-04T11:31:28.234Z,98397.19
2023-09-04T11:34:23.558Z,98390.44
2023-09-04T11:37:09.319Z,98391.72
2023-09-04T11:40:03.752Z,98384.97
2023-09-04T11:42:51.995Z,98384.41
2023-09-04T11:45:37.552Z,98379.22
2023-09-04T11:48:24.946Z,98378.69
2023-09-04T11:51:11.539Z,98380.03
2023-09-04T11:53:56.907Z,98375.66
2023-09-04T11:56:42.364Z,98376.19
2023-09-04T11:59:27.941Z,98372.66
2023-09-04T12:02:13.845Z,98373.19
2023-09-04T12:05:01.168Z,98366.44
2023-09-04T12:07:47.656Z,98356.94
2023-09-04T12:10:38.683Z,98355.81
2023-09-04T12:13:24.642Z,98355.78
2023-09-04T12:16:11.566Z,98357.94
2023-09-04T12:18:57.478Z,98354.66
2023-09-04T12:21:43.120Z,98350.31
2023-09-04T12:24:29.072Z,98348.69
2023-09-04T12:27:15.345Z,98338.13
2023-09-04T12:30:00.980Z,98345.09
2023-09-04T12:32:46.738Z,98342.34
2023-09-04T12:35:38.311Z,98336.59
2023-09-04T12:38:25.247Z,98325.22
2023-09-04T12:41:10.575Z,98328.72
2023-09-04T12:43:56.094Z,98318.63
2023-09-04T12:46:41.567Z,98316.41
2023-09-04T12:49:27.142Z,98314.47
2023-09-04T12:52:12.540Z,98316.28
2023-09-04T12:54:58.309Z,98316.75
2023-09-04T12:57:46.792Z,98304.78
2023-09-04T13:00:32.917Z,98304.13
2023-09-04T13:03:18.529Z,98296.78
2023-09-04T13:06:04.187Z,98293.41
2023-09-04T13:08:49.919Z,98295.78
2023-09-04T13:11:35.989Z,98303.03
2023-09-04T13:14:21.638Z,98299.44
2023-09-04T13:17:07.026Z,98301.56
2023-09-04T13:19:53.175Z,98298.31
2023-09-04T13:22:40.565Z,98297.63
2023-09-04T13:25:26.341Z,98291.13
2023-09-04T13:28:11.891Z,98295.66
2023-09-04T13:30:57.430Z,98294.81
2023-09-04T13:33:43.035Z,98289.59
2023-09-04T13:36:28.574Z,98282.72
2023-09-04T13:39:14.087Z,98286.66
2023-09-04T13:41:59.619Z,98277.66
2023-09-04T13:44:44.961Z,98270.53
2023-09-04T13:47:30.432Z,98267.44
2023-09-04T13:50:16.161Z,98271.38
2023-09-04T13:53:01.681Z,98264.19
2023-09-04T13:55:49.128Z,98260.31
2023-09-04T13:58:34.345Z,98248.59
2023-09-04T14:01:20.155Z,98245.69
2023-09-04T14:04:05.867Z,98246.88
2023-09-04T14:06:51.434Z,98249.53
2023-09-04T14:09:38.223Z,98242.91
2023-09-04T14:12:24.066Z,98231.66
2023-09-04T14:15:10.133Z,98234.66
2023-09-04T14:17:55.566Z,98232.22
2023-09-04T14:20:43.139Z,98233.47
2023-09-04T14:23:28.515Z,98227.81
2023-09-04T14:26:14.027Z,98233.53
2023-09-04T14:28:59.280Z,98228.50
2023-09-04T14:31:45.020Z,98230.97
2023-09-04T14:34:30.680Z,98223.91
2023-09-04T14:37:18.199Z,98212.97
2023-09-04T14:40:07.481Z,98218.56
2023-09-04T14:42:52.906Z,98217.06
2023-09-04T14:45:38.599Z,98220.50
2023-09-04T14:48:24.722Z,98222.34
2023-09-04T14:51:10.237Z,98216.66
2023-09-04T14:53:55.986Z,98219.47
2023-09-04T14:56:41.047Z,98212.75
2023-09-04T14:59:26.552Z,98217.31
2023-09-04T15:02:12.108Z,98213.72
2023-09-04T15:04:57.598Z,98217.59
2023-09-04T15:07:44.756Z,98216.63
2023-09-04T15:10:30.104Z,98211.81
2023-09-04T15:13:15.504Z,98220.44
2023-09-04T15:16:05.250Z,98204.66
2023-09-04T15:18:50.909Z,98199.59
2023-09-04T15:21:36.343Z,98202.66
2023-09-04T15:24:21.739Z,98203.09
2023-09-04T15:27:07.234Z,98201.06
2023-09-04T15:29:53.814Z,98198.59
2023-09-04T15:32:40.453Z,98199.31
2023-09-04T15:35:25.910Z,98202.88
2023-09-04T15:38:11.589Z,98201.00
2023-09-04T15:40:57.262Z,98189.38
2023-09-04T15:43:42.618Z,98201.06
2023-09-04T15:46:28.273Z,98194.56
2023-09-04T15:49:13.532Z,98205.59
2023-09-04T15:51:59.093Z,98205.13
2023-09-04T15:54:44.587Z,98207.34
2023-09-04T15:57:30.194Z,98202.50
2023-09-04T16:00:15.874Z,98194.47
2023-09-04T16:03:01.510Z,98194.06
2023-09-04T16:05:47.795Z,98194.75
2023-09-04T16:08:33.324Z,98187.78
2023-09-04T16:11:18.804Z,98186.78
2023-09-04T16:14:04.382Z,98180.66
2023-09-04T16:16:49.779Z,98179.66
2023-09-04T16:19:35.249Z,98177.63
2023-09-04T16:22:21.463Z,98176.88
2023-09-04T16:25:07.670Z,98174.56
2023-09-04T16:27:53.205Z,98172.22
2023-09-04T16:30:38.967Z,98169.13
2023-09-04T16:33:24.745Z,98171.63
2023-09-04T16:36:10.371Z,98172.50
2023-09-04T16:38:55.869Z,98171.56
2023-09-04T16:41:41.506Z,98178.13
2023-09-04T16:44:26.929Z,98169.72
2023-09-04T16:47:12.569Z,98168.38
2023-09-04T16:49:58.113Z,98165.53
2023-09-04T16:52:43.499Z,98160.94
2023-09-04T16:55:29.141Z,98164.53
2023-09-04T16:58:14.503Z,98165.09
2023-09-04T17:01:01.240Z,98166.00
2023-09-04T17:03:46.838Z,98166.38
2023-09-04T17:06:32.449Z,98159.94
2023-09-04T17:09:18.085Z,98159.50
2023-09-04T17:12:03.774Z,98163.66
2023-09-04T17:14:49.504Z,98168.03
2023-09-04T17:17:34.923Z,98167.31
2023-09-04T17:20:20.311Z,98169.03
2023-09-04T17:23:05.817Z,98172.69
2023-09-04T17:25:51.328Z,98177.72
2023-09-04T17:28:36.833Z,98176.28
2023-09-04T17:31:22.192Z,98178.63
2023-09-04T17:34:07.646Z,98179.00
2023-09-04T17:36:53.518Z,98180.19
2023-09-04T17:39:38.993Z,98175.19
2023-09-04T17:42:24.523Z,98178.94
2023-09-04T17:45:10.323Z,98178.63
2023-09-04T17:47:56.302Z,98182.53
2023-09-04T17:50:43.547Z,98183.44
2023-09-04T17:53:29.073Z,98179.97
2023-09-04T17:56:14.786Z,98182.44
2023-09-04T17:59:00.294Z,98186.22
2023-09-04T18:01:45.879Z,98188.91
2023-09-04T18:04:31.288Z,98181.34
2023-09-04T18:07:16.592Z,98182.72
2023-09-04T18:10:02.075Z,98197.25
2023-09-04T18:12:47.603Z,98196.44
2023-09-04T18:15:33.498Z,98193.75
2023-09-04T18:18:19.120Z,98191.03
2023-09-04T18:21:04.639Z,98181.28
2023-09-04T18:23:50.871Z,98189.31
2023-09-04T18:26:37.940Z,98197.63
2023-09-04T18:29:23.193Z,98195.69
2023-09-04T18:32:08.962Z,98200.50
2023-09-04T18:34:54.321Z,98204.25
2023-09-04T18:37:39.912Z,98202.88
2023-09-04T18:40:25.880Z,98203.34
2023-09-04T18:43:11.365Z,98208.75
2023-09-04T18:45:57.983Z,98206.13
2023-09-04T18:48:43.349Z,98209.97
2023-09-04T18:51:28.750Z,98205.84
2023-09-04T18:54:14.614Z,98207.34
2023-09-04T18:57:00.124Z,98214.28
2023-09-04T18:59:45.562Z,98216.09
2023-09-04T19:02:31.141Z,98216.81
2023-09-04T19:05:16.767Z,98206.81
2023-09-04T19:08:02.537Z,98211.63
2023-09-04T19:10:47.874Z,98212.13
2023-09-04T19:13:33.877Z,98211.13
2023-09-04T19:16:21.787Z,98220.75
2023-09-04T19:19:07.557Z,98209.25
2023-09-04T19:21:53.106Z,98215.59
2023-09-04T19:24:40.478Z,98217.16
2023-09-04T19:27:26.650Z,98214.41
2023-09-04T19:30:13.806Z,98221.81
2023-09-04T19:32:59.552Z,98221.63
2023-09-04T19:35:45.183Z,98225.38
2023-09-04T19:38:31.277Z,98219.03
2023-09-04T19:41:17.004Z,98229.56
2023-09-04T19:44:02.638Z,98229.97
2023-09-04T19:46:48.426Z,98225.69
2023-09-04T19:49:33.636Z,98229.91
2023-09-04T19:52:19.181Z,98234.59
2023-09-04T19:55:05.316Z,98239.81
2023-09-04T19:57:51.353Z,98232.44
2023-09-04T20:00:37.035Z,98236.31
2023-09-04T20:03:22.520Z,98236.94
2023-09-04T20:06:09.914Z,98242.97
2023-09-04T20:08:55.616Z,98244.50
2023-09-04T20:11:41.203Z,98237.78
2023-09-04T20:14:27.390Z,98244.34
2023-09-04T20:17:12.761Z,98244.34
2023-09-04T20:19:58.356Z,98247.09
2023-09-04T20:22:43.773Z,98245.81
2023-09-04T20:25:29.374Z,98246.75
2023-09-04T20:28:15.215Z,98251.41
2023-09-04T20:31:01.054Z,98256.06
2023-09-04T20:33:46.683Z,98252.00
2023-09-04T20:36:32.305Z,98250.38
2023-09-04T20:39:17.966Z,98247.25
2023-09-04T20:42:05.207Z,98250.28
2023-09-04T20:44:50.823Z,98253.66
2023-09-04T20:47:36.655Z,98249.25
2023-09-04T20:50:22.317Z,98252.28
2023-09-04T20:53:08.152Z,98254.28
2023-09-04T20:55:53.905Z,98260.06
2023-09-04T20:58:41.555Z,98259.94
2023-09-04T21:01:27.244Z,98257.72
2023-09-04T21:04:12.868Z,98255.91
2023-09-04T21:07:08.634Z,98256.13
2023-09-04T21:09:54.033Z,98246.50
2023-09-04T21:12:58.094Z,98252.16
2023-09-04T21:16:02.195Z,98252.31
2023-09-04T21:19:06.233Z,98256.44
2023-09-04T21:22:10.372Z,98254.72
2023-09-04T21:25:14.271Z,98255.88
2023-09-04T21:28:19.496Z,98252.84
2023-09-04T21:31:23.436Z,98245.88
2023-09-04T21:34:27.534Z,98236.94
2023-09-04T21:37:31.590Z,98239.84
2023-09-04T21:40:35.616Z,98236.81
2023-09-04T21:43:39.481Z,98234.63
2023-09-04T21:46:43.398Z,98234.63
2023-09-04T21:49:47.414Z,98229.38
2023-09-04T21:52:51.561Z,98236.81
2023-09-04T21:55:55.673Z,98238.06
2023-09-04T21:58:59.771Z,98246.06
2023-09-04T22:02:03.795Z,98240.56
2023-09-04T22:05:08.100Z,98233.72
2023-09-04T22:08:12.158Z,98235.44
2023-09-04T22:11:16.177Z,98226.28
2023-09-04T22:14:20.257Z,98230.56
2023-09-04T22:17:24.425Z,98233.25
2023-09-04T22:20:29.063Z,98225.25
2023-09-04T22:23:33.062Z,98226.16
2023-09-04T22:26:36.976Z,98223.56
2023-09-04T22:29:42.842Z,98222.03
2023-09-04T22:32:46.952Z,98228.03
2023-09-04T22:35:50.788Z,98226.03
2023-09-04T22:38:54.835Z,98229.97
2023-09-04T22:41:58.898Z,98218.28
2023-09-04T22:45:02.833Z,98226.50
2023-09-04T22:48:07.201Z,98212.59
2023-09-04T22:51:11.126Z,98210.97
2023-09-04T22:54:15.140Z,98211.06
2023-09-04T22:57:19.123Z,98209.59
2023-09-04T23:00:27.202Z,98202.16
2023-09-04T23:03:34.680Z,98207.75
2023-09-04T23:06:38.664Z,98206.59
2023-09-04T23:09:42.734Z,98207.03
2023-09-04T23:12:46.748Z,98197.25
2023-09-04T23:15:51.163Z,98205.09
2023-09-04T23:18:54.978Z,98201.84
2023-09-04T23:21:40.547Z,98207.78
2023-09-04T23:24:25.953Z,98208.81
2023-09-04T23:27:12.939Z,98208.88
2023-09-04T23:29:58.794Z,98205.03
2023-09-04T23:33:02.683Z,98199.34
2023-09-04T23:36:16.744Z,98204.31
2023-09-04T23:39:18.077Z,98193.06
2023-09-04T23:42:22.751Z,98182.84
2023-09-04T23:45:12.101Z,98190.63
2023-09-04T23:47:58.309Z,98192.22
2023-09-04T23:50:44.223Z,98193.84
2023-09-04T23:53:29.819Z,98189.38
2023-09-04T23:56:15.119Z,98192.84
2023-09-04T23:59:00.383Z,98192.22
